Time;durP1;ratioP1;P1;durP2;ratioP2;P2;SDS_P1;SDS_P2;PMS_P1;PMS_P2;Temp;Humidity;BMP_temperature;BMP_pressure;BME280_temperature;BME280_humidity;BME280_pressure;Samples;Min_cycle;Max_cycle;Signal;HPM_P1;HPM_P2
2022/12/11 00:02:19;;;;;;;6.47;3.53;;;5.70;99.90;;;;;;5027741;28;20038;-75
2022/12/11 00:04:45;;;;;;;5.40;3.60;;;5.70;99.90;;;;;;5014018;28;20487;-76
2022/12/11 00:07:11;;;;;;;6.35;3.78;;;5.70;99.90;;;;;;5013951;28;20053;-76
2022/12/11 00:09:37;;;;;;;4.93;3.45;;;5.70;99.90;;;;;;5013979;28;20084;-72
2022/12/11 00:12:04;;;;;;;4.95;2.47;;;5.60;99.90;;;;;;5013926;28;20026;-76
2022/12/11 00:14:30;;;;;;;3.58;2.38;;;5.60;99.90;;;;;;5014084;28;20026;-76
2022/12/11 00:16:56;;;;;;;4.65;2.75;;;5.60;99.90;;;;;;5026000;28;20393;-73
2022/12/11 00:19:22;;;;;;;8.93;2.25;;;5.60;99.90;;;;;;5014114;28;20061;-75
2022/12/11 00:21:48;;;;;;;2.72;2.08;;;5.50;99.90;;;;;;5030644;28;20032;-74
2022/12/11 00:24:14;;;;;;;4.82;2.33;;;5.50;99.90;;;;;;5033339;28;20022;-74
2022/12/11 00:26:40;;;;;;;3.33;1.90;;;5.40;99.90;;;;;;5016673;28;20038;-74
2022/12/11 00:29:07;;;;;;;2.25;1.55;;;5.40;99.90;;;;;;5013877;28;20036;-72
2022/12/11 00:31:33;;;;;;;4.82;2.63;;;5.40;99.90;;;;;;5013548;28;20033;-71
2022/12/11 00:34:01;;;;;;;6.18;2.55;;;5.40;99.90;;;;;;5013670;28;20034;-71
2022/12/11 00:36:27;;;;;;;4.05;2.90;;;5.40;99.90;;;;;;5029392;28;20037;-71
2022/12/11 00:38:53;;;;;;;4.28;2.75;;;5.40;99.90;;;;;;5028802;28;20108;-75
2022/12/11 00:41:20;;;;;;;3.75;2.58;;;5.40;99.90;;;;;;5040041;28;20380;-71
2022/12/11 00:43:46;;;;;;;2.90;2.50;;;5.40;99.90;;;;;;5024269;28;20037;-73
2022/12/11 00:46:13;;;;;;;4.05;2.33;;;5.40;99.90;;;;;;5025263;28;20084;-76
2022/12/11 00:48:38;;;;;;;4.75;2.60;;;5.30;99.90;;;;;;5013159;28;20029;-72
2022/12/11 00:51:05;;;;;;;2.20;1.92;;;5.30;99.90;;;;;;5020920;28;20097;-75
2022/12/11 00:53:31;;;;;;;3.85;2.70;;;5.30;99.90;;;;;;5012720;28;20034;-72
2022/12/11 00:55:57;;;;;;;2.22;1.73;;;5.30;99.90;;;;;;5012940;28;20033;-74
2022/12/11 00:58:23;;;;;;;3.63;2.20;;;5.30;99.90;;;;;;5018304;28;20044;-75
2022/12/11 01:00:51;;;;;;;2.45;1.80;;;5.20;99.90;;;;;;5019511;28;20495;-70
2022/12/11 01:03:17;;;;;;;3.92;1.73;;;5.20;99.90;;;;;;5032367;28;20030;-71
2022/12/11 01:05:55;;;;;;;3.20;1.65;;;5.20;99.90;;;;;;5032510;28;20029;-70
2022/12/11 01:08:21;;;;;;;3.40;1.85;;;5.20;99.90;;;;;;5031800;28;20025;-70
2022/12/11 01:10:47;;;;;;;2.10;1.58;;;5.20;99.90;;;;;;5012519;28;20438;-70
2022/12/11 01:13:13;;;;;;;2.50;1.30;;;5.20;99.90;;;;;;5018583;28;20373;-70
2022/12/11 01:15:43;;;;;;;4.15;1.88;;;5.20;99.90;;;;;;5032247;28;20087;-71
2022/12/11 01:18:11;;;;;;;4.43;2.13;;;5.20;99.90;;;;;;5019263;28;20477;-71
2022/12/11 01:20:39;;;;;;;4.35;1.85;;;5.10;99.90;;;;;;5022775;28;20048;-70
2022/12/11 01:23:05;;;;;;;6.15;1.80;;;5.10;99.90;;;;;;5012458;28;20029;-70
2022/12/11 01:25:32;;;;;;;2.97;1.55;;;5.10;99.90;;;;;;5021742;28;20032;-73
2022/12/11 01:27:58;;;;;;;3.42;1.77;;;5.10;99.90;;;;;;5032208;28;20045;-71
2022/12/11 01:30:25;;;;;;;4.85;1.80;;;5.10;99.90;;;;;;5032212;28;20021;-74
2022/12/11 01:32:51;;;;;;;3.17;1.90;;;5.00;99.90;;;;;;5032115;28;20048;-71
2022/12/11 01:35:18;;;;;;;2.90;2.03;;;5.00;99.90;;;;;;5032015;28;20021;-71
2022/12/11 01:37:44;;;;;;;2.75;1.70;;;5.10;99.90;;;;;;5032130;28;20029;-71
2022/12/11 01:40:14;;;;;;;2.92;2.03;;;5.00;99.90;;;;;;5031910;28;20041;-70
2022/12/11 01:42:40;;;;;;;3.40;1.90;;;5.00;99.90;;;;;;5021802;28;20033;-70
2022/12/11 01:45:21;;;;;;;2.83;2.00;;;5.00;99.90;;;;;;5029907;28;20018;-70
2022/12/11 01:47:52;;;;;;;10.43;2.00;;;5.00;99.90;;;;;;5030157;28;20137;-71
2022/12/11 01:50:18;;;;;;;2.80;1.58;;;5.00;99.90;;;;;;5012465;28;20050;-70
2022/12/11 01:52:48;;;;;;;2.05;1.45;;;4.90;99.90;;;;;;5018293;28;20017;-75
2022/12/11 01:55:16;;;;;;;1.70;1.20;;;4.90;99.90;;;;;;5059628;28;20033;-71
2022/12/11 01:57:46;;;;;;;2.45;1.60;;;4.80;99.90;;;;;;5018127;28;20083;-73
2022/12/11 02:00:12;;;;;;;3.13;1.85;;;4.90;99.90;;;;;;5032301;28;20056;-71
2022/12/11 02:02:43;;;;;;;2.38;1.45;;;4.90;99.90;;;;;;5029451;28;20018;-71
2022/12/11 02:05:09;;;;;;;3.08;1.60;;;4.90;99.90;;;;;;5019334;28;20410;-70
2022/12/11 02:07:53;;;;;;;4.22;1.77;;;4.80;99.90;;;;;;5035484;28;20026;-71
2022/12/11 02:10:20;;;;;;;4.35;1.80;;;4.70;99.90;;;;;;5034257;28;20021;-70
2022/12/11 02:13:22;;;;;;;1.38;1.17;;;4.70;99.90;;;;;;5035633;28;20102;-71
2022/12/11 02:15:58;;;;;;;2.67;1.10;;;4.60;99.90;;;;;;5002693;28;20044;-71
2022/12/11 02:18:33;;;;;;;1.60;1.30;;;4.60;99.90;;;;;;5018984;28;20034;-72
2022/12/11 02:21:20;;;;;;;2.22;1.63;;;4.50;99.90;;;;;;5013856;28;20555;-71
2022/12/11 02:24:11;;;;;;;1.50;1.30;;;4.60;99.90;;;;;;5013672;28;20037;-71
2022/12/11 02:26:46;;;;;;;1.70;1.35;;;4.50;99.90;;;;;;5013614;28;20129;-72
2022/12/11 02:29:18;;;;;;;2.28;1.17;;;4.50;99.90;;;;;;5013866;28;20022;-70
2022/12/11 02:31:52;;;;;;;5.32;1.42;;;4.40;99.90;;;;;;5013276;28;20038;-71
2022/12/11 02:34:29;;;;;;;1.98;1.35;;;4.40;99.90;;;;;;5013758;28;20381;-73
2022/12/11 02:37:03;;;;;;;3.67;1.48;;;4.40;99.90;;;;;;5013526;28;20066;-75
2022/12/11 02:39:32;;;;;;;2.20;1.30;;;4.40;99.90;;;;;;5013407;28;20224;-71
2022/12/11 02:41:59;;;;;;;1.20;1.10;;;4.40;99.90;;;;;;5012104;28;20041;-72
2022/12/11 02:44:29;;;;;;;1.88;1.50;;;4.40;99.90;;;;;;5013679;28;20038;-70
2022/12/11 02:46:55;;;;;;;1.35;1.10;;;4.40;99.90;;;;;;5013497;28;20133;-74
2022/12/11 02:49:23;;;;;;;2.05;1.45;;;4.40;99.90;;;;;;5013567;28;20036;-71
2022/12/11 02:51:51;;;;;;;1.52;1.38;;;4.40;99.90;;;;;;5022162;28;20037;-71
2022/12/11 02:54:26;;;;;;;1.30;1.20;;;4.40;99.90;;;;;;5035146;28;20029;-70
2022/12/11 02:57:17;;;;;;;2.30;1.58;;;4.40;99.90;;;;;;5035328;28;20029;-74
2022/12/11 02:59:45;;;;;;;2.80;1.60;;;4.30;99.90;;;;;;5013292;28;20037;-72
2022/12/11 03:02:12;;;;;;;1.77;1.35;;;4.30;99.90;;;;;;5012988;28;20060;-71
2022/12/11 03:04:39;;;;;;;3.33;1.77;;;4.30;99.90;;;;;;5013386;28;20046;-75
2022/12/11 03:07:16;;;;;;;2.97;1.55;;;4.30;99.90;;;;;;5013201;28;20026;-71
2022/12/11 03:09:43;;;;;;;5.03;1.67;;;4.30;99.90;;;;;;5012837;28;20072;-69
2022/12/11 03:12:13;;;;;;;1.95;1.58;;;4.30;99.90;;;;;;5029350;28;20078;-72
2022/12/11 03:14:40;;;;;;;2.08;1.80;;;4.30;99.90;;;;;;5014150;28;20038;-70
2022/12/11 03:17:09;;;;;;;2.85;2.00;;;4.30;99.90;;;;;;5012915;28;20034;-71
2022/12/11 03:19:54;;;;;;;2.10;1.65;;;4.30;99.90;;;;;;5013027;28;20025;-69
2022/12/11 03:22:49;;;;;;;3.20;2.00;;;4.30;99.90;;;;;;5012734;28;20120;-72
2022/12/11 03:25:20;;;;;;;2.00;1.80;;;4.30;99.90;;;;;;5002199;28;20078;-73
2022/12/11 03:28:40;;;;;;;3.97;2.58;;;4.30;99.90;;;;;;5012901;28;20038;-70
2022/12/11 03:31:10;;;;;;;4.30;2.30;;;4.30;99.90;;;;;;4916176;29;20106;-70
2022/12/11 03:33:43;;;;;;;3.42;2.13;;;4.30;99.90;;;;;;4916357;29;20062;-70
2022/12/11 03:36:12;;;;;;;;;;;4.20;99.90;;;;;;4927567;28;20051;-71
2022/12/11 03:38:49;;;;;;;3.28;2.15;;;4.10;99.90;;;;;;4953989;29;20354;-69
2022/12/11 03:41:18;;;;;;;3.13;2.10;;;4.10;99.90;;;;;;4954075;29;20061;-70
2022/12/11 03:43:45;;;;;;;2.75;2.10;;;4.10;99.90;;;;;;4954357;29;20525;-70
2022/12/11 03:46:13;;;;;;;2.00;1.70;;;4.10;99.90;;;;;;4954202;28;20031;-72
2022/12/11 03:48:43;;;;;;;3.42;1.65;;;4.00;99.90;;;;;;4954205;29;20039;-70
2022/12/11 03:51:09;;;;;;;2.45;2.20;;;4.00;99.90;;;;;;4954032;29;20122;-71
2022/12/11 03:53:37;;;;;;;2.47;2.05;;;3.90;99.90;;;;;;4953938;29;20118;-71
2022/12/11 03:56:08;;;;;;;2.05;1.70;;;3.90;99.90;;;;;;4953988;29;20032;-70
2022/12/11 03:58:34;;;;;;;3.25;1.50;;;3.80;99.90;;;;;;4953826;29;20562;-72
2022/12/11 04:01:00;;;;;;;2.35;1.67;;;3.80;99.90;;;;;;4953584;29;20047;-72
2022/12/11 04:03:26;;;;;;;2.75;2.08;;;3.80;99.90;;;;;;4953875;29;20039;-71
2022/12/11 04:05:55;;;;;;;2.40;1.83;;;3.70;99.90;;;;;;4980319;28;20048;-72
2022/12/11 04:08:22;;;;;;;2.85;2.05;;;3.70;99.90;;;;;;5033964;28;20029;-70
2022/12/11 04:11:33;;;;;;;4.20;2.40;;;3.70;99.90;;;;;;5033594;28;20029;-71
2022/12/11 04:13:34;;;;;;;2.42;2.05;;;3.70;99.90;;;;;;5033785;28;20071;-70
2022/12/11 04:16:00;;;;;;;2.13;1.90;;;3.70;99.90;;;;;;5033777;28;20021;-70
2022/12/11 04:26:41;;;;;;;2.83;1.80;;;3.70;99.90;;;;;;5033648;28;20033;-70
2022/12/11 04:29:07;;;;;;;1.52;1.42;;;3.70;99.90;;;;;;5033638;28;20068;-70
2022/12/11 04:31:33;;;;;;;2.47;1.73;;;3.60;99.90;;;;;;5033547;28;20053;-70
2022/12/11 04:33:58;;;;;;;3.58;2.25;;;3.60;99.90;;;;;;5033430;28;20423;-71
2022/12/11 04:36:24;;;;;;;2.22;1.67;;;3.60;99.90;;;;;;5033333;28;20037;-72
2022/12/11 04:38:50;;;;;;;4.38;2.00;;;3.60;99.90;;;;;;5033280;28;20079;-70
2022/12/11 04:41:17;;;;;;;4.13;2.10;;;3.60;99.90;;;;;;5033414;28;20404;-72
2022/12/11 04:43:46;;;;;;;2.92;2.10;;;3.50;99.90;;;;;;5033454;28;20056;-70
2022/12/11 04:46:20;;;;;;;3.95;2.45;;;3.60;99.90;;;;;;5033422;28;20129;-73
2022/12/11 04:48:47;;;;;;;4.88;2.95;;;3.60;99.90;;;;;;5032196;28;20528;-72
2022/12/11 04:51:14;;;;;;;4.70;2.90;;;3.50;99.90;;;;;;5033432;28;20072;-74
2022/12/11 04:53:40;;;;;;;4.80;3.13;;;3.50;99.90;;;;;;5033291;28;20047;-71
2022/12/11 04:56:07;;;;;;;6.40;3.53;;;3.50;99.90;;;;;;5031883;28;20500;-73
2022/12/11 04:58:34;;;;;;;6.32;3.38;;;3.40;99.90;;;;;;5033231;28;20021;-73
2022/12/11 05:01:09;;;;;;;8.73;3.60;;;3.40;99.90;;;;;;5032944;28;20033;-70
2022/12/11 05:03:35;;;;;;;3.17;2.60;;;3.40;99.90;;;;;;5032882;28;20047;-72
2022/12/11 05:06:01;;;;;;;4.95;2.97;;;3.40;99.90;;;;;;5033147;28;20521;-70
2022/12/11 05:08:27;;;;;;;4.20;3.10;;;3.50;99.90;;;;;;5033088;28;20503;-70
2022/12/11 05:11:06;;;;;;;5.18;3.75;;;3.50;99.90;;;;;;5033046;28;20098;-71
2022/12/11 05:13:32;;;;;;;4.53;3.25;;;3.50;99.90;;;;;;5033067;28;20471;-70
2022/12/11 05:15:58;;;;;;;4.25;3.20;;;3.40;99.90;;;;;;5032955;28;20037;-71
2022/12/11 05:18:25;;;;;;;5.68;3.78;;;3.40;99.90;;;;;;5031832;28;20025;-71
2022/12/11 05:20:59;;;;;;;5.68;4.03;;;3.40;99.90;;;;;;5032894;28;20564;-70
2022/12/11 05:23:25;;;;;;;5.20;3.35;;;3.50;99.90;;;;;;5033005;28;20025;-71
2022/12/11 05:26:04;;;;;;;6.65;3.90;;;3.40;99.90;;;;;;5032866;28;20492;-74
2022/12/11 05:28:32;;;;;;;5.53;3.45;;;3.40;99.90;;;;;;5032844;28;20033;-72
2022/12/11 05:31:04;;;;;;;6.30;3.72;;;3.50;99.90;;;;;;5032761;28;20021;-73
2022/12/11 05:33:30;;;;;;;6.18;4.28;;;3.40;99.90;;;;;;5033662;28;20093;-70
2022/12/11 05:35:56;;;;;;;5.75;3.00;;;3.40;99.90;;;;;;5036678;28;20033;-70
2022/12/11 05:38:23;;;;;;;6.45;3.83;;;3.40;99.90;;;;;;5036568;28;20036;-71
2022/12/11 05:41:03;;;;;;;7.53;4.50;;;3.40;99.90;;;;;;5036441;28;20040;-72
2022/12/11 05:43:31;;;;;;;5.88;3.78;;;3.50;99.90;;;;;;5036695;28;20041;-71
2022/12/11 05:46:08;;;;;;;6.35;3.88;;;3.50;99.90;;;;;;5036560;28;20034;-71
2022/12/11 05:48:35;;;;;;;7.38;4.05;;;3.50;99.90;;;;;;5036558;28;20017;-74
2022/12/11 05:51:02;;;;;;;7.00;4.30;;;3.50;99.90;;;;;;5036496;28;20496;-73
2022/12/11 05:53:28;;;;;;;9.02;4.82;;;3.40;99.90;;;;;;5036409;28;20113;-71
2022/12/11 05:56:03;;;;;;;8.05;4.57;;;3.50;99.90;;;;;;5036166;28;20041;-72
2022/12/11 05:58:30;;;;;;;7.40;4.40;;;3.50;99.90;;;;;;5036306;28;20503;-71
2022/12/11 06:00:56;;;;;;;7.75;4.65;;;3.50;99.90;;;;;;5036101;28;20037;-71
2022/12/11 06:03:22;;;;;;;6.40;4.35;;;3.50;99.90;;;;;;5036203;28;20029;-72
2022/12/11 06:05:48;;;;;;;6.28;4.25;;;3.50;99.90;;;;;;5036324;28;20396;-70
2022/12/11 06:08:14;;;;;;;6.20;4.38;;;3.50;99.90;;;;;;5036196;28;20025;-71
2022/12/11 06:10:47;;;;;;;8.27;4.53;;;3.50;99.90;;;;;;5035900;28;20028;-74
2022/12/11 06:13:13;;;;;;;7.78;4.82;;;3.50;99.90;;;;;;5036169;28;20021;-71
2022/12/11 06:15:39;;;;;;;9.10;4.75;;;3.50;99.90;;;;;;5036048;28;20033;-70
2022/12/11 06:18:05;;;;;;;8.43;4.93;;;3.50;99.90;;;;;;5037091;28;20079;-73
2022/12/11 06:20:32;;;;;;;9.07;4.75;;;3.50;99.90;;;;;;5035878;28;20096;-73
2022/12/11 06:22:58;;;;;;;7.60;4.85;;;3.60;99.90;;;;;;5035761;28;20033;-72
2022/12/11 06:25:24;;;;;;;8.23;5.43;;;3.50;99.90;;;;;;5035772;28;20026;-72
2022/12/11 06:27:50;;;;;;;9.82;4.82;;;3.50;99.90;;;;;;5035709;28;20389;-72
2022/12/11 06:30:16;;;;;;;7.95;4.78;;;3.50;99.90;;;;;;5035631;28;20033;-75
2022/12/11 06:32:42;;;;;;;10.35;6.20;;;3.50;99.90;;;;;;5035774;28;20053;-71
2022/12/11 06:35:09;;;;;;;9.95;5.45;;;3.50;99.90;;;;;;5035601;28;20384;-71
2022/12/11 06:37:36;;;;;;;10.90;5.57;;;3.50;99.90;;;;;;5035719;28;20060;-73
2022/12/11 06:40:04;;;;;;;11.32;6.40;;;3.50;99.90;;;;;;5033711;28;20104;-72
2022/12/11 06:42:30;;;;;;;10.35;5.90;;;3.50;99.90;;;;;;5035161;28;20025;-75
2022/12/11 06:44:58;;;;;;;8.80;4.97;;;3.50;99.90;;;;;;5034429;28;20112;-71
2022/12/11 06:47:26;;;;;;;7.07;4.68;;;3.60;99.90;;;;;;5035418;28;20033;-71
2022/12/11 06:49:52;;;;;;;9.55;5.28;;;3.50;99.90;;;;;;5034925;28;20113;-73
2022/12/11 06:52:19;;;;;;;9.18;4.78;;;3.50;99.90;;;;;;5035283;28;20032;-71
2022/12/11 06:54:45;;;;;;;8.02;4.55;;;3.50;99.90;;;;;;5035112;28;20041;-72
2022/12/11 06:57:11;;;;;;;9.35;5.10;;;3.50;99.90;;;;;;5035082;28;20070;-74
2022/12/11 06:59:37;;;;;;;8.73;5.10;;;3.60;99.90;;;;;;5035255;28;20029;-71
2022/12/11 07:02:03;;;;;;;9.70;4.95;;;3.60;99.90;;;;;;5035176;28;20044;-76
2022/12/11 07:04:29;;;;;;;8.27;4.75;;;3.50;99.90;;;;;;5035195;28;20473;-73
2022/12/11 07:06:56;;;;;;;7.43;4.78;;;3.60;99.90;;;;;;5035092;28;20465;-71
2022/12/11 07:09:22;;;;;;;9.32;5.05;;;3.60;99.90;;;;;;5034938;28;20029;-72
2022/12/11 07:11:50;;;;;;;10.05;5.35;;;3.60;99.90;;;;;;5034738;28;20511;-71
2022/12/11 07:14:15;;;;;;;9.48;5.65;;;3.60;99.90;;;;;;5034911;28;20536;-72
2022/12/11 07:16:42;;;;;;;10.52;5.55;;;3.60;99.90;;;;;;5034907;28;20124;-71
2022/12/11 07:19:07;;;;;;;9.20;4.78;;;3.60;99.90;;;;;;5034932;28;20029;-74
2022/12/11 07:21:34;;;;;;;10.48;5.82;;;3.60;99.90;;;;;;5034627;28;20380;-73
2022/12/11 07:23:59;;;;;;;8.45;4.55;;;3.60;99.90;;;;;;5034659;28;20029;-72
2022/12/11 07:26:25;;;;;;;11.57;6.22;;;3.60;99.90;;;;;;5034589;28;20033;-72
2022/12/11 07:28:52;;;;;;;10.27;5.13;;;3.60;99.90;;;;;;5034646;28;20021;-73
2022/12/11 07:31:20;;;;;;;9.25;5.55;;;3.60;99.90;;;;;;5034619;28;20033;-73
2022/12/11 07:33:46;;;;;;;10.10;5.35;;;3.70;99.90;;;;;;5034560;28;20040;-72
2022/12/11 07:36:15;;;;;;;10.88;5.78;;;3.70;99.90;;;;;;5014740;28;20037;-75
2022/12/11 07:38:41;;;;;;;10.43;5.57;;;3.70;99.90;;;;;;5014524;28;20034;-72
2022/12/11 07:41:11;;;;;;;11.23;5.22;;;3.70;99.90;;;;;;5014479;28;20088;-71
2022/12/11 07:43:37;;;;;;;9.98;5.35;;;3.70;99.90;;;;;;5023137;28;20025;-72
2022/12/11 07:46:06;;;;;;;11.43;6.88;;;3.70;99.90;;;;;;5034425;28;20032;-74
2022/12/11 07:48:35;;;;;;;9.10;4.68;;;3.70;99.90;;;;;;5034051;28;20147;-72
2022/12/11 07:51:11;;;;;;;10.38;5.47;;;3.70;99.90;;;;;;5033656;28;20408;-71
2022/12/11 07:53:37;;;;;;;9.20;5.40;;;3.70;99.90;;;;;;5031542;28;20083;-72
2022/12/11 07:56:03;;;;;;;10.68;5.15;;;3.70;99.90;;;;;;5033417;28;20022;-74
2022/12/11 07:58:29;;;;;;;7.38;4.38;;;3.70;99.90;;;;;;5032512;28;20017;-72
2022/12/11 08:00:55;;;;;;;9.45;5.53;;;3.70;99.90;;;;;;5033262;28;20051;-72
2022/12/11 08:03:23;;;;;;;7.28;4.70;;;3.80;99.90;;;;;;5033448;28;20044;-74
2022/12/11 08:05:51;;;;;;;13.95;6.97;;;3.70;99.90;;;;;;5033306;28;20057;-74
2022/12/11 08:08:18;;;;;;;7.90;4.90;;;3.80;99.90;;;;;;5033238;28;20033;-73
2022/12/11 08:10:44;;;;;;;11.85;5.65;;;3.80;99.90;;;;;;5033256;28;20026;-73
2022/12/11 08:13:10;;;;;;;10.23;4.93;;;3.80;99.90;;;;;;5033740;28;20033;-74
2022/12/11 08:15:37;;;;;;;11.50;6.10;;;3.90;99.90;;;;;;5033768;28;20109;-76
2022/12/11 08:18:03;;;;;;;9.77;5.28;;;3.90;99.90;;;;;;5033822;28;20108;-72
2022/12/11 08:20:29;;;;;;;12.40;6.13;;;4.00;99.90;;;;;;5033126;28;20580;-74
2022/12/11 08:22:56;;;;;;;12.40;6.03;;;4.00;99.90;;;;;;5032962;28;20028;-74
2022/12/11 08:25:22;;;;;;;11.35;6.43;;;4.10;99.90;;;;;;5033153;28;20385;-72
2022/12/11 08:27:48;;;;;;;12.43;5.82;;;4.20;99.90;;;;;;5033050;28;20021;-72
2022/12/11 08:30:14;;;;;;;7.25;4.38;;;4.20;99.90;;;;;;5033025;28;20489;-72
2022/12/11 08:32:40;;;;;;;12.93;6.50;;;4.30;99.90;;;;;;5033131;28;20034;-75
2022/12/11 08:35:06;;;;;;;9.60;5.18;;;4.20;99.90;;;;;;5032852;28;20563;-73
2022/12/11 08:37:33;;;;;;;9.63;5.38;;;4.30;99.90;;;;;;5032562;28;20033;-73
2022/12/11 08:39:59;;;;;;;9.85;6.13;;;4.30;99.90;;;;;;5032745;28;20034;-73
2022/12/11 08:42:25;;;;;;;10.73;6.15;;;4.30;99.90;;;;;;5032650;28;20040;-72
2022/12/11 08:44:51;;;;;;;10.93;5.40;;;4.40;99.90;;;;;;5032737;28;20025;-73
2022/12/11 08:47:17;;;;;;;8.80;5.38;;;4.40;99.90;;;;;;5032741;28;20158;-75
2022/12/11 08:49:43;;;;;;;9.68;4.90;;;4.40;99.90;;;;;;5033047;28;20030;-73
2022/12/11 08:52:08;;;;;;;11.82;6.00;;;4.40;99.90;;;;;;5032463;28;20028;-73
2022/12/11 08:54:36;;;;;;;8.93;5.35;;;4.40;99.90;;;;;;5033304;28;20485;-74
2022/12/11 08:57:02;;;;;;;10.98;5.20;;;4.30;99.90;;;;;;5032360;28;20025;-75
2022/12/11 08:59:28;;;;;;;8.52;5.20;;;4.20;99.90;;;;;;5032608;28;20097;-74
2022/12/11 09:01:55;;;;;;;14.00;6.93;;;4.30;99.90;;;;;;5031564;28;20464;-73
2022/12/11 09:04:21;;;;;;;11.40;6.43;;;4.40;99.90;;;;;;5033012;28;20025;-71
2022/12/11 09:06:48;;;;;;;11.50;6.50;;;4.40;99.90;;;;;;5031391;28;20049;-73
2022/12/11 09:09:13;;;;;;;11.25;6.05;;;4.40;99.90;;;;;;5033995;28;20033;-72
2022/12/11 09:11:40;;;;;;;10.32;5.85;;;4.50;99.90;;;;;;5037093;28;20034;-71
2022/12/11 09:14:06;;;;;;;13.88;7.75;;;4.60;99.90;;;;;;5036094;28;20045;-74
2022/12/11 09:16:33;;;;;;;11.95;6.30;;;4.70;99.90;;;;;;5037050;28;20075;-73
2022/12/11 09:18:59;;;;;;;10.60;5.70;;;4.70;99.90;;;;;;5036588;28;20028;-74
2022/12/11 09:21:28;;;;;;;11.93;6.43;;;4.80;99.90;;;;;;5036842;28;20557;-73
2022/12/11 09:23:56;;;;;;;10.50;5.95;;;4.90;99.90;;;;;;5036487;28;20029;-75
2022/12/11 09:26:22;;;;;;;13.88;6.80;;;4.80;99.90;;;;;;5036332;28;20366;-75
2022/12/11 09:28:51;;;;;;;12.68;6.63;;;5.10;99.90;;;;;;5036934;28;20026;-74
2022/12/11 09:31:26;;;;;;;11.07;5.63;;;5.30;99.90;;;;;;5035779;28;20025;-72
2022/12/11 09:33:58;;;;;;;12.57;6.60;;;5.20;99.90;;;;;;5035836;28;20160;-74
2022/12/11 09:36:25;;;;;;;11.73;7.13;;;5.20;99.90;;;;;;5036620;28;20083;-75
2022/12/11 09:38:51;;;;;;;11.40;6.53;;;5.20;99.90;;;;;;5035809;28;20052;-72
2022/12/11 09:41:20;;;;;;;13.20;6.78;;;5.10;99.90;;;;;;5036814;28;20370;-72
2022/12/11 09:44:00;;;;;;;15.82;8.30;;;5.10;99.90;;;;;;5037473;28;20025;-72
2022/12/11 09:46:27;;;;;;;15.95;7.07;;;5.20;99.90;;;;;;5020403;28;20033;-74
2022/12/11 09:48:54;;;;;;;15.48;7.88;;;5.20;99.90;;;;;;5042022;28;20033;-74
2022/12/11 09:51:41;;;;;;;18.65;8.48;;;5.30;99.90;;;;;;5035718;28;20025;-75
2022/12/11 09:54:10;;;;;;;18.77;9.35;;;5.30;99.90;;;;;;5033235;28;20033;-72
2022/12/11 09:56:47;;;;;;;17.55;9.43;;;5.20;99.90;;;;;;5032938;28;20029;-72
2022/12/11 09:59:22;;;;;;;17.23;9.13;;;5.20;99.90;;;;;;5035416;28;20026;-75
2022/12/11 10:02:04;;;;;;;16.50;9.32;;;5.20;99.90;;;;;;5035304;28;20029;-71
2022/12/11 10:04:51;;;;;;;16.73;8.95;;;5.10;99.90;;;;;;5034789;28;21280;-77
2022/12/11 10:07:47;;;;;;;17.58;9.23;;;5.20;99.90;;;;;;5033127;28;20183;-75
2022/12/11 10:10:56;;;;;;;18.00;8.68;;;5.20;99.90;;;;;;5035332;28;20372;-73
2022/12/11 10:14:00;;;;;;;16.45;8.80;;;5.00;99.90;;;;;;5013350;28;20042;-76
2022/12/11 10:16:43;;;;;;;19.95;10.30;;;5.00;99.90;;;;;;5019664;28;20037;-76
2022/12/11 10:19:23;;;;;;;21.13;11.57;;;4.90;99.90;;;;;;5013091;28;20084;-73
2022/12/11 10:21:50;;;;;;;23.05;12.93;;;4.80;99.90;;;;;;5010803;28;20053;-73
2022/12/11 10:24:48;;;;;;;21.52;11.57;;;4.80;99.90;;;;;;5012808;28;20084;-72
2022/12/11 10:27:20;;;;;;;21.75;11.95;;;4.80;99.90;;;;;;5012299;28;20152;-74
2022/12/11 10:29:57;;;;;;;23.00;12.80;;;4.80;99.90;;;;;;5011736;28;20124;-75
2022/12/11 10:32:27;;;;;;;18.50;9.65;;;4.80;99.90;;;;;;5012958;28;20042;-75
2022/12/11 10:35:04;;;;;;;25.83;12.60;;;4.70;99.90;;;;;;5011707;28;20149;-74
2022/12/11 10:37:30;;;;;;;23.58;13.63;;;4.70;99.90;;;;;;5011631;28;20034;-76
2022/12/11 10:39:56;;;;;;;21.20;13.40;;;4.70;99.90;;;;;;5012345;28;20053;-77
2022/12/11 10:42:22;;;;;;;23.17;13.45;;;4.60;99.90;;;;;;5012510;28;20052;-73
2022/12/11 10:45:03;;;;;;;21.30;13.23;;;4.70;99.90;;;;;;5008981;28;20034;-73
2022/12/11 10:47:29;;;;;;;19.20;11.10;;;4.70;99.90;;;;;;5008853;28;20033;-74
2022/12/11 10:50:00;;;;;;;21.88;12.38;;;4.60;99.90;;;;;;5032194;28;20048;-72
2022/12/11 10:52:39;;;;;;;23.02;12.65;;;4.70;99.90;;;;;;5031742;28;20112;-72
2022/12/11 10:55:18;;;;;;;24.52;14.23;;;4.60;99.90;;;;;;5033852;28;20473;-72
2022/12/11 10:57:52;;;;;;;23.13;13.77;;;4.60;99.90;;;;;;5039897;28;20025;-73
2022/12/11 11:00:38;;;;;;;24.50;14.00;;;4.60;99.90;;;;;;5026343;28;20075;-74
2022/12/11 11:03:17;;;;;;;27.17;15.25;;;4.60;99.90;;;;;;5034859;28;20030;-72
2022/12/11 11:05:43;;;;;;;22.42;13.48;;;4.60;99.90;;;;;;5046115;28;20437;-71
2022/12/11 11:08:20;;;;;;;26.80;14.98;;;4.50;99.90;;;;;;5025889;28;20049;-73
2022/12/11 11:10:58;;;;;;;21.85;12.63;;;4.60;99.90;;;;;;5021124;28;20148;-72
2022/12/11 11:13:27;;;;;;;25.92;13.27;;;4.60;99.90;;;;;;5029280;28;20033;-71
2022/12/11 11:16:11;;;;;;;24.90;14.52;;;4.50;99.90;;;;;;5051104;28;20468;-72
2022/12/11 11:18:39;;;;;;;25.10;13.50;;;4.50;99.90;;;;;;5023710;28;20100;-71
2022/12/11 11:21:06;;;;;;;23.10;13.80;;;4.50;99.90;;;;;;5045589;28;20040;-73
2022/12/11 11:23:33;;;;;;;21.58;12.73;;;4.60;99.90;;;;;;5014745;28;20021;-71
2022/12/11 11:26:07;;;;;;;20.67;11.98;;;4.60;99.90;;;;;;5017492;28;20068;-73
2022/12/11 11:28:41;;;;;;;22.73;13.48;;;4.60;99.90;;;;;;5014739;28;20030;-72
2022/12/11 11:31:15;;;;;;;25.33;12.75;;;4.60;99.90;;;;;;5014411;28;20049;-72
2022/12/11 11:34:04;;;;;;;19.77;11.68;;;4.50;99.90;;;;;;5041055;28;20066;-71
2022/12/11 11:36:33;;;;;;;21.65;11.88;;;4.50;99.90;;;;;;5014617;28;20030;-73
2022/12/11 11:39:20;;;;;;;24.77;12.63;;;4.50;99.90;;;;;;5034248;28;20042;-72
2022/12/11 11:42:09;;;;;;;23.48;12.85;;;4.50;99.90;;;;;;5032570;28;20428;-72
2022/12/11 11:45:12;;;;;;;24.05;12.77;;;4.60;99.90;;;;;;5034147;28;20025;-72
2022/12/11 11:48:04;;;;;;;27.55;14.75;;;4.60;99.90;;;;;;5017449;28;20030;-72
2022/12/11 11:50:34;;;;;;;21.55;12.68;;;4.60;99.90;;;;;;5031666;28;20033;-72
2022/12/11 11:53:19;;;;;;;20.45;11.68;;;4.70;99.90;;;;;;5030141;28;20065;-72
2022/12/11 11:56:05;;;;;;;23.88;13.65;;;4.70;99.90;;;;;;5032039;28;20053;-72
2022/12/11 11:58:44;;;;;;;22.35;11.82;;;4.70;99.90;;;;;;5026978;28;20018;-72
2022/12/11 12:01:18;;;;;;;22.83;13.35;;;4.60;99.90;;;;;;5031607;28;20056;-73
2022/12/11 12:03:46;;;;;;;24.20;12.73;;;4.60;99.90;;;;;;5030421;28;20531;-72
2022/12/11 12:06:30;;;;;;;26.30;15.73;;;4.60;99.90;;;;;;5022802;28;20026;-73
2022/12/11 12:09:08;;;;;;;27.63;15.65;;;4.60;99.90;;;;;;5027583;28;20040;-73
2022/12/11 12:11:59;;;;;;;24.08;13.05;;;4.60;99.90;;;;;;5023727;28;20108;-72
2022/12/11 12:14:34;;;;;;;26.08;13.82;;;4.60;99.90;;;;;;5031535;28;20045;-73
2022/12/11 12:17:30;;;;;;;27.92;14.25;;;4.60;99.90;;;;;;5029116;28;20034;-71
2022/12/11 12:20:09;;;;;;;22.10;11.88;;;4.70;99.90;;;;;;5029636;28;20528;-73
2022/12/11 12:23:06;;;;;;;29.77;16.98;;;4.70;99.90;;;;;;5021670;28;20069;-72
2022/12/11 12:25:56;;;;;;;25.80;15.52;;;4.70;99.90;;;;;;5028445;28;20044;-72
2022/12/11 12:28:40;;;;;;;28.58;15.30;;;4.70;99.90;;;;;;5031051;28;20041;-72
2022/12/11 12:31:06;;;;;;;30.13;14.32;;;4.70;99.90;;;;;;5013342;28;20521;-72
2022/12/11 12:33:49;;;;;;;22.48;13.52;;;4.70;99.90;;;;;;5013768;28;20145;-72
2022/12/11 12:36:39;;;;;;;24.30;13.65;;;4.70;99.90;;;;;;5015581;28;20021;-72
2022/12/11 12:39:25;;;;;;;27.58;13.38;;;4.60;99.90;;;;;;5032178;28;20045;-72
2022/12/11 12:42:03;;;;;;;21.90;13.43;;;4.60;99.90;;;;;;5034202;28;20091;-73
2022/12/11 12:44:39;;;;;;;27.15;13.98;;;4.60;99.90;;;;;;5028225;28;20029;-73
2022/12/11 12:47:14;;;;;;;24.63;14.25;;;4.50;99.90;;;;;;5015304;28;20477;-72
2022/12/11 12:49:43;;;;;;;24.98;14.25;;;4.60;99.90;;;;;;5022094;28;20040;-72
2022/12/11 12:52:31;;;;;;;25.85;16.83;;;4.60;99.90;;;;;;5032691;28;20029;-73
2022/12/11 12:55:17;;;;;;;30.17;16.85;;;4.70;99.90;;;;;;5023568;28;20034;-70
2022/12/11 12:58:05;;;;;;;25.35;15.30;;;4.70;99.90;;;;;;5018342;28;20068;-72
2022/12/11 13:00:49;;;;;;;27.90;16.38;;;4.60;99.90;;;;;;5021728;28;20493;-74
2022/12/11 13:03:31;;;;;;;26.15;15.32;;;4.60;99.90;;;;;;5022644;28;20043;-73
2022/12/11 13:06:02;;;;;;;24.92;14.02;;;4.60;99.90;;;;;;5032387;28;20247;-72
2022/12/11 13:08:32;;;;;;;22.95;14.05;;;4.60;99.90;;;;;;5021187;28;20539;-72
2022/12/11 13:11:06;;;;;;;24.38;13.75;;;4.70;99.90;;;;;;5026232;28;20021;-73
2022/12/11 13:13:38;;;;;;;25.20;13.23;;;4.70;99.90;;;;;;5029795;28;20041;-72
2022/12/11 13:16:14;;;;;;;25.75;14.10;;;4.70;99.90;;;;;;5032433;28;20045;-72
2022/12/11 13:18:42;;;;;;;28.25;13.43;;;4.80;99.90;;;;;;5031158;28;20052;-71
2022/12/11 13:21:31;;;;;;;23.17;13.65;;;4.70;99.90;;;;;;5024896;28;20034;-71